Time;durP1;ratioP1;P1;durP2;ratioP2;P2;SDS_P1;SDS_P2;PMS_P1;PMS_P2;Temp;Humidity;BMP_temperature;BMP_pressure;BME280_temperature;BME280_humidity;BME280_pressure;Samples;Min_cycle;Max_cycle;Signal;HPM_P1;HPM_P2
2020/12/15 00:00:44;;;;;;;11.47;9.93;;;;;;;5.30;79.45;95259.38;5096989;28;20247;-73
2020/12/15 00:03:09;;;;;;;11.03;9.90;;;;;;;5.34;79.83;95265.78;5101668;28;20245;-74
2020/12/15 00:05:36;;;;;;;11.57;10.00;;;;;;;5.32;80.12;95265.13;5112877;28;20196;-74
2020/12/15 00:08:02;;;;;;;10.90;9.80;;;;;;;5.35;79.73;95264.84;5103752;28;20264;-73
2020/12/15 00:10:28;;;;;;;11.13;10.03;;;;;;;5.49;79.01;95251.50;5092511;28;20799;-73
2020/12/15 00:12:54;;;;;;;11.10;9.97;;;;;;;5.48;79.01;95247.34;5099650;28;20204;-73
2020/12/15 00:15:20;;;;;;;10.93;9.80;;;;;;;5.46;78.82;95247.50;5092024;28;20226;-73
2020/12/15 00:17:46;;;;;;;10.67;9.57;;;;;;;5.37;79.29;95245.06;5105908;28;20215;-74
2020/12/15 00:20:12;;;;;;;11.33;10.13;;;;;;;5.26;80.49;95251.22;5112725;28;20223;-74
2020/12/15 00:22:38;;;;;;;11.70;10.53;;;;;;;5.29;80.60;95243.25;5111708;28;20221;-74
2020/12/15 00:25:05;;;;;;;12.07;10.53;;;;;;;5.32;80.11;95234.50;5095783;28;20203;-73
2020/12/15 00:27:31;;;;;;;11.87;10.67;;;;;;;5.11;81.83;95245.88;5093244;28;20634;-73
2020/12/15 00:29:57;;;;;;;12.27;10.80;;;;;;;5.16;81.87;95241.13;5092056;28;20550;-72
2020/12/15 00:32:23;;;;;;;12.60;10.83;;;;;;;5.05;82.58;95240.56;5102297;28;20195;-73
2020/12/15 00:34:49;;;;;;;13.17;11.30;;;;;;;4.82;84.46;95233.41;5092042;28;20213;-74
2020/12/15 00:37:14;;;;;;;14.73;12.57;;;;;;;4.66;86.33;95230.78;5107768;28;20230;-73
2020/12/15 00:39:41;;;;;;;13.23;11.57;;;;;;;4.69;86.20;95232.22;5112340;28;20714;-74
2020/12/15 00:42:07;;;;;;;14.53;12.07;;;;;;;4.71;86.44;95237.97;5102061;28;20192;-73
2020/12/15 00:44:34;;;;;;;14.37;12.23;;;;;;;4.73;86.15;95234.34;5112316;28;20217;-73
2020/12/15 00:47:00;;;;;;;13.87;11.90;;;;;;;4.77;86.19;95232.28;5098549;28;20567;-73
2020/12/15 00:49:25;;;;;;;14.50;12.03;;;;;;;4.81;85.79;95251.44;5092137;28;20220;-73
2020/12/15 00:51:51;;;;;;;16.40;11.63;;;;;;;4.76;85.95;95261.28;5101350;28;20604;-73
2020/12/15 00:54:17;;;;;;;14.03;11.57;;;;;;;4.90;85.15;95267.59;5091636;28;20295;-73
2020/12/15 00:56:44;;;;;;;13.37;11.77;;;;;;;5.05;84.22;95261.00;5101806;28;20196;-74
2020/12/15 00:59:10;;;;;;;14.57;12.07;;;;;;;5.17;83.21;95265.72;5112189;28;20246;-74
2020/12/15 01:01:36;;;;;;;14.13;11.57;;;;;;;5.13;83.66;95261.84;5109776;28;20242;-74
2020/12/15 01:04:03;;;;;;;13.67;11.30;;;;;;;4.96;84.90;95262.69;5091733;28;20287;-73
2020/12/15 01:06:29;;;;;;;12.67;11.33;;;;;;;5.04;84.34;95265.28;5104380;28;20195;-74
2020/12/15 01:08:55;;;;;;;13.73;11.73;;;;;;;5.07;84.14;95264.19;5111997;28;20230;-74
2020/12/15 01:11:26;;;;;;;13.00;11.70;;;;;;;5.07;83.99;95261.63;5100952;28;20192;-73
2020/12/15 01:13:53;;;;;;;12.90;11.47;;;;;;;5.08;83.88;95270.91;5110840;28;20199;-74
2020/12/15 01:16:19;;;;;;;13.07;11.23;;;;;;;5.04;84.41;95267.84;5105870;28;20196;-74
2020/12/15 01:18:45;;;;;;;13.07;11.30;;;;;;;5.05;84.33;95269.44;5095724;28;20231;-74
2020/12/15 01:21:11;;;;;;;13.90;11.90;;;;;;;5.07;84.20;95280.31;5104132;28;20700;-74
2020/12/15 01:23:37;;;;;;;13.07;11.60;;;;;;;4.95;84.77;95294.25;5098829;28;20207;-74
2020/12/15 01:26:03;;;;;;;12.87;10.83;;;;;;;4.90;84.89;95295.66;5094865;28;20199;-74
2020/12/15 01:28:29;;;;;;;12.53;11.23;;;;;;;5.08;83.45;95288.75;5098214;28;20351;-74
2020/12/15 01:30:55;;;;;;;13.00;11.53;;;;;;;4.92;84.32;95292.00;5116048;28;20201;-73
2020/12/15 01:33:21;;;;;;;13.63;11.60;;;;;;;4.66;86.34;95291.97;5101817;28;20197;-74
2020/12/15 01:35:47;;;;;;;14.10;11.83;;;;;;;4.67;86.24;95293.56;5095293;28;20197;-74
2020/12/15 01:38:13;;;;;;;13.20;11.33;;;;;;;4.71;86.86;95294.88;5103407;28;20234;-74
2020/12/15 01:40:47;;;;;;;13.40;11.57;;;;;;;4.78;86.31;95301.00;5115760;28;20690;-74
2020/12/15 01:43:13;;;;;;;12.30;11.00;;;;;;;4.95;85.64;95296.81;5102629;28;20663;-74
2020/12/15 01:45:39;;;;;;;13.23;10.60;;;;;;;5.13;84.50;95292.47;5095146;28;20246;-73
2020/12/15 01:48:06;;;;;;;12.10;10.63;;;;;;;5.30;83.02;95295.13;5105736;28;20217;-73
2020/12/15 01:50:32;;;;;;;11.87;10.43;;;;;;;5.32;82.86;95311.06;5115671;28;20685;-75
2020/12/15 01:52:58;;;;;;;12.60;10.77;;;;;;;5.38;82.27;95306.19;5105146;28;20192;-74
2020/12/15 01:55:24;;;;;;;11.97;10.77;;;;;;;5.41;81.78;95310.97;5095075;28;20212;-73
2020/12/15 01:57:50;;;;;;;12.47;11.17;;;;;;;5.48;81.18;95304.31;5103535;28;20697;-74
2020/12/15 02:00:17;;;;;;;12.23;10.50;;;;;;;5.46;81.61;95301.09;5115252;28;20231;-74
2020/12/15 02:02:43;;;;;;;13.33;11.63;;;;;;;5.41;81.27;95289.72;5107371;28;20623;-75
2020/12/15 02:05:10;;;;;;;12.80;10.73;;;;;;;5.38;81.91;95280.66;5097440;28;20273;-74
2020/12/15 02:07:36;;;;;;;12.00;10.80;;;;;;;5.46;81.46;95285.78;5115237;28;20223;-74
2020/12/15 02:10:03;;;;;;;13.30;10.03;;;;;;;5.52;80.94;95295.41;5113730;28;20285;-72
2020/12/15 02:12:29;;;;;;;11.83;10.63;;;;;;;5.45;80.92;95294.38;5100119;28;20199;-74
2020/12/15 02:14:55;;;;;;;11.63;10.43;;;;;;;5.49;80.87;95307.66;5114623;28;20199;-74
2020/12/15 02:17:21;;;;;;;13.33;10.83;;;;;;;5.48;80.52;95311.16;5113535;28;20195;-74
2020/12/15 02:19:47;;;;;;;11.17;9.97;;;;;;;5.47;80.53;95312.91;5115040;28;20227;-73
2020/12/15 02:22:13;;;;;;;11.73;10.20;;;;;;;5.50;80.39;95311.81;5098868;28;20187;-73
2020/12/15 02:24:39;;;;;;;11.37;10.20;;;;;;;5.53;79.80;95311.53;5114777;28;20202;-74
2020/12/15 02:27:05;;;;;;;10.40;9.40;;;;;;;5.55;79.98;95310.41;5096703;28;20196;-73
2020/12/15 02:29:31;;;;;;;10.77;9.67;;;;;;;5.57;79.41;95317.94;5097376;28;20191;-74
2020/12/15 02:31:57;;;;;;;10.97;9.87;;;;;;;5.58;79.24;95309.28;5113555;28;20195;-73
2020/12/15 02:34:23;;;;;;;13.23;9.80;;;;;;;5.57;79.31;95312.81;5094080;28;20694;-74
2020/12/15 02:36:49;;;;;;;11.30;9.70;;;;;;;5.44;79.29;95303.00;5094131;28;20227;-74
2020/12/15 02:39:18;;;;;;;11.13;9.40;;;;;;;5.39;79.11;95305.19;5113309;28;20211;-73
2020/12/15 02:41:43;;;;;;;10.33;9.27;;;;;;;5.30;79.87;95303.56;5114765;28;20248;-74
2020/12/15 02:44:10;;;;;;;10.70;9.50;;;;;;;5.30;80.12;95300.22;5096215;28;20200;-74
2020/12/15 02:46:36;;;;;;;11.50;9.90;;;;;;;5.34;80.13;95307.44;5094056;28;20213;-73
2020/12/15 02:49:03;;;;;;;11.40;10.20;;;;;;;5.29;80.42;95313.94;5112013;28;20215;-74
2020/12/15 02:51:29;;;;;;;10.63;9.53;;;;;;;5.30;80.47;95311.22;5114267;28;20199;-74
2020/12/15 02:53:55;;;;;;;10.53;9.43;;;;;;;5.23;80.41;95317.88;5097016;28;20739;-74
2020/12/15 02:56:23;;;;;;;11.57;10.00;;;;;;;5.22;80.61;95324.72;5105673;28;20227;-74
2020/12/15 02:58:49;;;;;;;10.80;9.37;;;;;;;5.28;80.52;95325.88;5114178;28;20219;-74
2020/12/15 03:01:16;;;;;;;10.30;9.20;;;;;;;5.30;80.19;95318.88;5114338;28;20215;-72
2020/12/15 03:03:42;;;;;;;9.17;8.13;;;;;;;5.27;80.40;95326.84;5098630;28;20211;-72
2020/12/15 03:06:08;;;;;;;10.20;9.17;;;;;;;5.28;79.92;95330.19;5102044;28;20203;-73
2020/12/15 03:08:34;;;;;;;10.77;8.70;;;;;;;5.27;79.95;95326.84;5114381;28;20718;-74
2020/12/15 03:11:01;;;;;;;9.93;8.40;;;;;;;5.26;79.75;95316.78;5106510;28;20660;-73
2020/12/15 03:13:28;;;;;;;9.57;8.67;;;;;;;5.26;80.03;95319.31;5106441;28;20199;-74
2020/12/15 03:15:53;;;;;;;9.67;8.67;;;;;;;5.21;80.07;95317.22;5108066;28;20192;-75
2020/12/15 03:18:19;;;;;;;9.90;8.53;;;;;;;5.18;80.73;95315.00;5105302;28;20222;-73
2020/12/15 03:20:47;;;;;;;10.07;8.77;;;;;;;5.18;80.55;95320.09;5109989;28;20675;-74
2020/12/15 03:23:14;;;;;;;10.00;9.00;;;;;;;5.26;80.57;95314.22;5104606;28;20225;-73
2020/12/15 03:25:40;;;;;;;10.17;9.17;;;;;;;5.32;80.42;95324.66;5111190;28;20282;-74
2020/12/15 03:28:06;;;;;;;10.43;9.03;;;;;;;5.34;80.01;95319.38;5093220;28;20240;-74
2020/12/15 03:30:32;;;;;;;10.10;8.40;;;;;;;5.33;79.37;95318.59;5094139;28;20629;-75
2020/12/15 03:32:58;;;;;;;10.40;9.07;;;;;;;5.27;79.75;95326.03;5104689;28;20229;-74
2020/12/15 03:35:24;;;;;;;9.57;8.57;;;;;;;5.17;80.31;95328.69;5106552;28;20207;-74
2020/12/15 03:37:50;;;;;;;9.80;8.80;;;;;;;5.12;80.50;95336.00;5112547;28;20590;-74
2020/12/15 03:40:16;;;;;;;11.00;9.17;;;;;;;5.05;80.90;95325.56;5111604;28;20215;-74
2020/12/15 03:42:42;;;;;;;9.77;8.77;;;;;;;5.00;81.62;95322.69;5106552;28;20203;-74
2020/12/15 03:45:08;;;;;;;12.30;10.07;;;;;;;4.91;81.82;95317.66;5092801;28;20697;-73
2020/12/15 03:47:35;;;;;;;10.60;9.23;;;;;;;4.86;82.46;95325.75;5093796;28;20212;-74
2020/12/15 03:50:00;;;;;;;9.13;8.23;;;;;;;4.90;82.36;95323.72;5092773;28;20192;-74
2020/12/15 03:52:26;;;;;;;9.70;8.60;;;;;;;4.92;81.68;95335.38;5098012;28;20203;-74
2020/12/15 03:54:52;;;;;;;9.20;8.30;;;;;;;4.96;82.04;95346.88;5113059;28;20199;-74
2020/12/15 03:57:18;;;;;;;10.10;9.10;;;;;;;5.02;81.54;95359.03;5102345;28;20565;-73
2020/12/15 03:59:44;;;;;;;10.13;8.87;;;;;;;5.06;81.54;95323.81;5113002;28;20199;-73
2020/12/15 04:02:10;;;;;;;10.07;9.00;;;;;;;5.05;81.61;95330.69;5100259;28;20694;-74
2020/12/15 04:04:37;;;;;;;10.60;9.27;;;;;;;5.05;81.24;95322.22;5112933;28;20204;-73
2020/12/15 04:07:02;;;;;;;10.17;9.13;;;;;;;5.03;81.40;95321.56;5101251;28;20226;-73
2020/12/15 04:09:28;;;;;;;13.33;9.40;;;;;;;4.99;81.69;95330.50;5092616;28;20306;-74
2020/12/15 04:11:54;;;;;;;11.07;9.53;;;;;;;4.94;81.38;95320.72;5093363;28;20203;-74
2020/12/15 04:14:20;;;;;;;10.23;9.13;;;;;;;4.83;82.17;95306.44;5092659;28;20196;-73
2020/12/15 04:16:46;;;;;;;9.87;8.80;;;;;;;4.76;82.37;95314.84;5102828;28;20188;-72
2020/12/15 04:19:12;;;;;;;9.60;8.23;;;;;;;4.75;82.32;95313.25;5112872;28;20220;-74
2020/12/15 04:21:39;;;;;;;8.77;7.87;;;;;;;4.80;81.32;95311.84;5102443;28;20242;-73
2020/12/15 04:24:04;;;;;;;8.60;7.70;;;;;;;4.67;82.38;95300.41;5104257;28;20210;-74
2020/12/15 04:26:30;;;;;;;9.20;7.93;;;;;;;4.59;82.60;95303.72;5104087;28;20192;-73
2020/12/15 04:28:56;;;;;;;8.87;7.97;;;;;;;4.65;82.36;95313.31;5093093;28;20232;-74
2020/12/15 04:31:22;;;;;;;9.33;8.10;;;;;;;4.69;81.89;95311.28;5104361;28;20210;-73
2020/12/15 04:33:48;;;;;;;8.47;7.40;;;;;;;4.72;82.04;95308.44;5092377;28;20261;-74
2020/12/15 04:36:14;;;;;;;8.33;7.47;;;;;;;4.70;82.07;95315.41;5111518;28;20595;-74
2020/12/15 04:38:41;;;;;;;9.07;7.53;;;;;;;4.57;83.09;95292.84;5095228;28;20222;-74
2020/12/15 04:41:07;;;;;;;8.57;7.67;;;;;;;4.58;82.81;95253.66;5091365;28;20218;-74
2020/12/15 04:43:34;;;;;;;8.63;7.60;;;;;;;4.73;82.37;95236.09;5092070;28;20223;-74
2020/12/15 04:46:03;;;;;;;8.47;7.67;;;;;;;4.75;81.87;95229.88;5091236;28;20196;-74
2020/12/15 04:48:32;;;;;;;8.50;7.60;;;;;;;4.58;83.38;95229.94;5091933;28;20220;-74
2020/12/15 04:50:59;;;;;;;9.47;7.43;;;;;;;4.40;84.71;95227.41;5098047;28;20199;-73
2020/12/15 04:53:27;;;;;;;10.07;7.93;;;;;;;4.33;85.85;95250.13;5111666;28;20278;-74
2020/12/15 04:55:55;;;;;;;8.37;7.57;;;;;;;4.22;86.25;95224.88;5112277;28;20210;-73
2020/12/15 04:58:23;;;;;;;9.90;7.50;;;;;;;4.25;86.41;95200.81;5109190;28;20298;-74
2020/12/15 05:00:52;;;;;;;7.90;7.10;;;;;;;4.31;85.76;95202.78;5095748;28;20276;-73
2020/12/15 05:03:21;;;;;;;8.30;7.40;;;;;;;4.17;86.01;95204.13;5110382;28;20256;-74
2020/12/15 05:05:48;;;;;;;7.70;6.90;;;;;;;4.25;85.99;95193.97;5094658;28;20191;-73
2020/12/15 05:08:15;;;;;;;7.87;6.80;;;;;;;4.33;85.30;95176.22;5108124;28;20256;-73
2020/12/15 05:10:41;;;;;;;6.57;5.97;;;;;;;4.42;84.37;95159.25;5100387;28;20569;-74
2020/12/15 05:13:08;;;;;;;6.87;6.23;;;;;;;4.29;85.25;95129.03;5091860;28;20218;-74
2020/12/15 05:15:33;;;;;;;7.03;6.37;;;;;;;4.22;85.99;95119.59;5101609;28;20193;-74
2020/12/15 05:18:01;;;;;;;6.57;5.97;;;;;;;4.07;86.92;95132.06;5098581;28;20251;-73
2020/12/15 05:20:31;;;;;;;6.20;5.60;;;;;;;4.18;86.81;95153.97;5092965;28;20240;-73
2020/12/15 05:22:57;;;;;;;6.77;6.07;;;;;;;4.41;85.76;95199.22;5091869;28;20238;-73
2020/12/15 05:25:25;;;;;;;5.97;5.40;;;;;;;4.59;84.30;95213.69;5098716;28;20662;-73
2020/12/15 05:27:54;;;;;;;7.53;5.80;;;;;;;4.45;83.57;95209.91;5099861;28;20223;-74
2020/12/15 05:30:21;;;;;;;8.10;5.93;;;;;;;4.46;83.66;95232.69;5098113;28;20221;-73
2020/12/15 05:32:49;;;;;;;5.93;5.43;;;;;;;4.50;82.97;95256.16;5095758;28;20204;-74
2020/12/15 05:35:15;;;;;;;5.27;4.77;;;;;;;4.62;82.07;95226.91;5097117;28;20689;-73
2020/12/15 05:37:45;;;;;;;5.77;5.17;;;;;;;4.60;81.67;95223.72;5111790;28;20230;-73
2020/12/15 05:40:11;;;;;;;6.17;5.53;;;;;;;4.67;81.75;95231.56;5109231;28;20218;-74
2020/12/15 05:42:38;;;;;;;6.20;5.60;;;;;;;4.80;81.21;95227.69;5111705;28;20192;-75
2020/12/15 05:45:05;;;;;;;5.83;5.10;;;;;;;4.84;80.58;95228.97;5110442;28;20192;-74
2020/12/15 05:47:32;;;;;;;6.27;4.97;;;;;;;4.97;80.55;95227.78;5111988;28;20215;-74
2020/12/15 05:49:59;;;;;;;5.30;4.80;;;;;;;5.08;80.13;95223.22;5096712;28;20200;-74
2020/12/15 05:52:26;;;;;;;5.80;5.30;;;;;;;5.11;79.23;95215.28;5082916;28;20268;-75
2020/12/15 05:55:03;;;;;;;5.70;5.20;;;;;;;4.95;80.33;95217.75;5081744;28;20564;-73
2020/12/15 05:57:32;;;;;;;5.80;5.20;;;;;;;5.02;80.14;95212.81;5088535;28;20196;-73
2020/12/15 06:00:09;;;;;;;5.73;5.13;;;;;;;5.12;79.88;95204.13;5090203;28;20228;-74
2020/12/15 06:02:36;;;;;;;5.93;5.37;;;;;;;5.19;80.02;95222.97;5094285;28;20233;-74
2020/12/15 06:05:02;;;;;;;5.40;4.90;;;;;;;5.28;79.49;95216.13;5099970;28;20188;-73
2020/12/15 06:07:28;;;;;;;5.37;4.87;;;;;;;5.24;79.33;95217.38;5108408;28;20666;-73
2020/12/15 06:09:56;;;;;;;5.83;4.87;;;;;;;5.12;80.02;95218.63;5097977;28;20254;-74
2020/12/15 06:12:22;;;;;;;5.97;5.37;;;;;;;5.16;80.44;95217.38;5094709;28;20224;-75
2020/12/15 06:14:49;;;;;;;5.63;5.13;;;;;;;5.21;80.35;95238.09;5094608;28;20196;-73
2020/12/15 06:17:16;;;;;;;5.67;5.07;;;;;;;5.30;79.69;95238.97;5093918;28;20200;-75
2020/12/15 06:19:43;;;;;;;5.20;4.70;;;;;;;5.39;79.21;95230.38;5101589;28;20212;-76
2020/12/15 06:22:09;;;;;;;6.13;4.60;;;;;;;5.44;78.83;95241.72;5094825;28;20663;-77
2020/12/15 06:24:38;;;;;;;5.23;4.80;;;;;;;5.48;78.40;95239.69;5094048;28;20762;-73
2020/12/15 06:27:06;;;;;;;8.27;7.43;;;;;;;5.48;77.44;95239.69;5090712;28;20222;-74
2020/12/15 06:29:34;;;;;;;8.33;7.43;;;;;;;5.47;77.79;95235.53;5093979;28;20223;-74
2020/12/15 06:32:02;;;;;;;6.40;5.80;;;;;;;5.45;78.08;95248.44;5093862;28;20219;-75
2020/12/15 06:34:29;;;;;;;6.40;5.80;;;;;;;5.36;79.41;95233.25;5093754;28;20192;-74
2020/12/15 06:36:56;;;;;;;7.40;5.00;;;;;;;5.31;78.47;95243.91;5093324;28;20695;-73
2020/12/15 06:39:24;;;;;;;5.33;4.83;;;;;;;5.30;78.65;95237.22;5079157;28;20208;-74
2020/12/15 06:42:01;;;;;;;5.90;5.30;;;;;;;5.34;78.93;95223.19;5093977;28;20220;-75
2020/12/15 06:44:31;;;;;;;5.50;5.00;;;;;;;5.44;78.41;95233.28;5093520;28;20207;-73
2020/12/15 06:46:58;;;;;;;6.10;5.50;;;;;;;5.46;78.17;95239.03;5093379;28;20193;-73
2020/12/15 06:49:28;;;;;;;5.77;5.17;;;;;;;5.40;78.09;95232.78;5093339;28;20222;-75
2020/12/15 06:51:58;;;;;;;8.90;7.77;;;;;;;5.39;78.77;95243.13;5093898;28;20192;-75
2020/12/15 06:54:28;;;;;;;20.27;16.00;;;;;;;5.39;78.60;95233.72;5093421;28;20659;-73
2020/12/15 06:57:07;;;;;;;7.33;6.63;;;;;;;5.36;78.93;95243.47;5091286;28;20196;-73
2020/12/15 06:59:37;;;;;;;6.30;5.70;;;;;;;5.36;78.99;95244.25;5090424;28;20757;-75
2020/12/15 07:02:06;;;;;;;6.10;5.50;;;;;;;5.42;80.62;95250.50;5093148;28;20220;-73
2020/12/15 07:04:33;;;;;;;7.47;5.80;;;;;;;5.49;78.47;95248.94;5114383;22;20235;-76
2020/12/15 07:07:00;;;;;;;6.67;5.93;;;;;;;5.49;78.06;95246.38;5093181;28;20566;-79
2020/12/15 07:09:29;;;;;;;5.93;5.40;;;;;;;5.49;77.96;95243.84;5093659;28;20188;-79
2020/12/15 07:11:55;;;;;;;8.47;6.60;;;;;;;5.38;78.49;95244.91;5093535;28;20224;-79
2020/12/15 07:14:22;;;;;;;6.50;5.77;;;;;;;5.33;78.66;95262.44;5079046;28;20221;-79
2020/12/15 07:16:48;;;;;;;6.83;6.13;;;;;;;5.31;79.08;95263.53;5072638;28;20243;-79
2020/12/15 07:19:14;;;;;;;6.33;5.73;;;;;;;5.38;78.95;95260.22;5072885;28;20200;-79
2020/12/15 07:21:41;;;;;;;6.83;6.13;;;;;;;5.40;78.97;95271.06;5072874;28;20591;-77
2020/12/15 07:24:12;;;;;;;6.10;5.50;;;;;;;5.57;90.50;95269.41;5072871;28;20217;-77
2020/12/15 07:26:39;;;;;;;6.50;4.93;;;;;;;6.04;100.00;95276.59;5071248;28;20201;-77
2020/12/15 07:29:07;;;;;;;7.27;5.13;;;;;;;6.27;90.57;95279.38;5072618;28;20193;-78
2020/12/15 07:31:35;;;;;;;6.63;5.50;;;;;;;6.56;89.42;95284.81;5072939;28;20185;-78
2020/12/15 07:34:09;;;;;;;11.27;5.70;;;;;;;6.93;91.32;95279.22;5072428;28;20217;-76
2020/12/15 07:36:41;;;;;;;7.40;4.90;;;;;;;7.20;88.17;95283.19;5071935;28;20200;-78
2020/12/15 07:39:09;;;;;;;6.67;5.10;;;;;;;7.43;86.33;95276.44;5072226;28;20597;-79
2020/12/15 07:41:37;;;;;;;6.23;5.63;;;;;;;7.46;79.44;95272.75;5073060;28;20223;-78
2020/12/15 07:44:08;;;;;;;6.97;6.30;;;;;;;7.20;74.55;95281.44;5072720;28;20306;-77
2020/12/15 07:46:34;;;;;;;12.33;11.00;;;;;;;7.03;74.59;95272.19;5072340;28;20284;-78
2020/12/15 07:49:00;;;;;;;13.93;11.33;;;;;;;6.80;74.47;95278.91;5072372;28;20663;-77
2020/12/15 07:51:26;;;;;;;10.27;8.90;;;;;;;6.62;75.09;95281.66;5072341;28;20196;-79
2020/12/15 07:53:53;;;;;;;8.20;6.93;;;;;;;6.22;75.85;95287.50;5072579;28;20212;-79
2020/12/15 07:56:21;;;;;;;8.93;7.40;;;;;;;5.97;77.63;95285.84;5071056;28;20204;-77
2020/12/15 07:58:49;;;;;;;8.53;7.27;;;;;;;6.00;78.09;95298.31;5072136;28;20201;-76
2020/12/15 08:01:20;;;;;;;7.57;6.77;;;;;;;5.93;77.76;95292.25;5072399;28;20327;-79
2020/12/15 08:03:46;;;;;;;8.10;7.40;;;;;;;5.84;78.47;95294.72;5071252;28;20224;-76
2020/12/15 08:06:13;;;;;;;8.60;7.23;;;;;;;5.92;78.10;95293.19;5072370;28;20289;-74
2020/12/15 08:08:39;;;;;;;9.73;7.53;;;;;;;5.68;78.94;95296.41;5072010;28;20193;-75
2020/12/15 08:11:14;;;;;;;7.53;6.73;;;;;;;5.62;79.37;95297.81;5072040;28;20228;-75
2020/12/15 08:13:41;;;;;;;9.23;7.20;;;;;;;5.75;79.26;95297.41;5051756;28;20294;-77
2020/12/15 08:16:10;;;;;;;12.00;7.37;;;;;;;5.87;78.76;95316.59;5069753;28;20200;-77
2020/12/15 08:18:37;;;;;;;7.73;6.93;;;;;;;5.94;78.26;95311.72;5061143;28;20193;-77
2020/12/15 08:21:03;;;;;;;8.50;7.70;;;;;;;5.84;78.52;95304.94;5072096;28;20285;-78
2020/12/15 08:23:30;;;;;;;8.90;7.60;;;;;;;5.90;78.66;95308.66;5070747;28;20638;-75
2020/12/15 08:25:57;;;;;;;9.73;7.37;;;;;;;5.92;78.14;95309.31;5067812;28;20200;-77
2020/12/15 08:28:24;;;;;;;8.73;7.30;;;;;;;5.98;78.19;95313.00;5071042;28;20238;-77
2020/12/15 08:30:53;;;;;;;8.93;7.43;;;;;;;6.01;77.66;95321.16;5071054;28;20196;-77
2020/12/15 08:33:23;;;;;;;9.83;7.87;;;;;;;5.88;78.08;95313.09;5071447;28;20208;-77
2020/12/15 08:35:49;;;;;;;7.67;6.90;;;;;;;5.88;78.52;95334.38;5071262;28;20201;-78
2020/12/15 08:38:16;;;;;;;8.07;7.27;;;;;;;5.98;78.21;95331.69;5070679;28;20196;-77
2020/12/15 08:40:44;;;;;;;9.50;7.67;;;;;;;6.08;77.90;95332.38;5071215;28;20228;-77
2020/12/15 08:43:10;;;;;;;93.20;77.23;;;;;;;6.03;78.39;95326.91;5071144;28;20224;-75
2020/12/15 08:45:36;;;;;;;18.33;15.60;;;;;;;6.13;78.02;95337.81;5071359;28;20544;-76
2020/12/15 08:48:03;;;;;;;15.87;13.63;;;;;;;6.19;77.34;95342.28;5071236;28;20193;-75
2020/12/15 08:50:32;;;;;;;12.97;10.30;;;;;;;6.28;77.39;95330.34;5070695;28;20197;-75
2020/12/15 08:53:05;;;;;;;8.37;7.53;;;;;;;6.43;85.84;95333.09;5070899;28;20197;-74
2020/12/15 08:55:33;;;;;;;6.27;5.67;;;;;;;6.84;92.40;95337.31;5069170;28;20196;-75
2020/12/15 08:58:00;;;;;;;7.40;5.60;;;;;;;7.24;88.56;95331.38;5069072;28;20626;-76
2020/12/15 09:00:26;;;;;;;6.83;5.53;;;;;;;7.57;86.91;95331.28;5070998;28;20730;-77
2020/12/15 09:02:52;;;;;;;6.90;6.30;;;;;;;7.65;76.82;95330.50;5071285;28;20664;-77
2020/12/15 09:05:19;;;;;;;8.07;7.27;;;;;;;7.48;73.27;95333.09;5070517;28;20207;-78
2020/12/15 09:07:45;;;;;;;7.87;7.07;;;;;;;7.16;73.94;95339.03;5071320;28;20208;-77
2020/12/15 09:10:13;;;;;;;8.13;7.40;;;;;;;7.00;74.25;95343.38;5070364;28;20615;-75
2020/12/15 09:12:43;;;;;;;8.33;7.53;;;;;;;6.89;74.23;95341.94;5071658;28;20196;-75
2020/12/15 09:15:09;;;;;;;10.20;7.50;;;;;;;6.83;74.95;95345.13;5071105;28;20197;-77
2020/12/15 09:17:35;;;;;;;10.27;8.47;;;;;;;6.80;74.56;95358.25;5071148;28;20553;-77
2020/12/15 09:20:02;;;;;;;34.67;29.23;;;;;;;6.75;75.05;95356.16;5069657;28;20200;-75
2020/12/15 09:22:28;;;;;;;19.10;15.53;;;;;;;6.71;75.00;95354.09;5071270;28;20254;-77
2020/12/15 09:24:57;;;;;;;10.17;9.17;;;;;;;6.62;74.92;95360.13;5071207;28;20311;-76
2020/12/15 09:27:24;;;;;;;9.47;8.47;;;;;;;6.63;75.63;95362.53;5066098;28;20688;-75
2020/12/15 09:29:50;;;;;;;8.63;7.73;;;;;;;6.64;75.49;95363.34;5067282;28;20197;-77
2020/12/15 09:32:17;;;;;;;8.63;7.73;;;;;;;6.68;75.41;95362.06;5068617;28;20193;-75
2020/12/15 09:34:43;;;;;;;8.60;7.77;;;;;;;6.71;75.26;95367.69;5071008;28;20242;-75
2020/12/15 09:37:09;;;;;;;9.77;7.60;;;;;;;6.67;75.49;95361.28;5073820;28;20189;-74
2020/12/15 09:39:37;;;;;;;8.90;7.57;;;;;;;6.70;75.73;95358.41;5074767;28;20250;-75
2020/12/15 09:42:04;;;;;;;9.57;7.90;;;;;;;6.59;75.79;95358.69;5074394;28;20228;-75
2020/12/15 09:44:30;;;;;;;8.87;8.07;;;;;;;6.71;76.28;95365.13;5074328;28;20216;-75
2020/12/15 09:46:57;;;;;;;8.37;7.57;;;;;;;6.78;76.23;95366.06;5074333;28;20563;-75
2020/12/15 09:49:23;;;;;;;9.30;8.27;;;;;;;6.70;75.53;95373.75;5074498;28;20606;-77
2020/12/15 09:51:49;;;;;;;9.83;8.20;;;;;;;6.76;76.19;95378.22;5073932;28;20196;-76
2020/12/15 09:54:15;;;;;;;8.90;7.60;;;;;;;6.83;75.37;95374.09;5073474;28;20209;-77
2020/12/15 09:56:44;;;;;;;8.57;7.63;;;;;;;6.97;75.46;95372.66;5072711;28;20200;-75
2020/12/15 09:59:10;;;;;;;10.20;8.27;;;;;;;7.07;74.91;95372.50;5073916;28;20205;-77
2020/12/15 10:01:36;;;;;;;24.43;19.70;;;;;;;7.01;75.02;95373.13;5074041;28;20217;-76
2020/12/15 10:04:02;;;;;;;38.73;28.97;;;;;;;7.09;74.80;95371.38;5072989;28;20286;-76
2020/12/15 10:06:28;;;;;;;13.80;11.73;;;;;;;6.97;74.88;95356.50;5074049;28;20224;-75
2020/12/15 10:08:54;;;;;;;10.17;9.10;;;;;;;7.10;74.61;95354.28;5074174;28;20197;-75
2020/12/15 10:11:21;;;;;;;9.23;8.33;;;;;;;7.26;74.79;95351.69;5074181;28;20197;-75
2020/12/15 10:13:48;;;;;;;9.40;8.40;;;;;;;7.36;73.75;95352.31;5073622;28;20216;-75
2020/12/15 10:16:14;;;;;;;12.87;8.83;;;;;;;7.47;74.13;95353.75;5073873;28;20873;-75
2020/12/15 10:18:40;;;;;;;10.93;8.57;;;;;;;7.56;73.52;95338.19;5074182;28;20199;-75
2020/12/15 10:21:06;;;;;;;12.67;8.50;;;;;;;7.63;72.80;95338.34;5073344;28;20229;-75
2020/12/15 10:23:33;;;;;;;10.17;8.70;;;;;;;7.51;73.50;95335.31;5073442;28;20220;-76
2020/12/15 10:25:59;;;;;;;10.47;8.97;;;;;;;7.60;73.33;95338.66;5071824;28;20212;-74
2020/12/15 10:28:25;;;;;;;8.70;7.87;;;;;;;7.57;72.38;95328.75;5074488;28;20659;-77
2020/12/15 10:30:52;;;;;;;9.30;8.13;;;;;;;7.61;72.85;95333.38;5073604;28;20261;-75
2020/12/15 10:33:17;;;;;;;9.60;8.60;;;;;;;7.75;72.48;95342.13;5073088;28;20220;-75
2020/12/15 10:35:43;;;;;;;9.80;8.83;;;;;;;7.68;71.33;95345.53;5073460;28;20204;-77
2020/12/15 10:38:09;;;;;;;10.13;8.77;;;;;;;7.71;71.91;95345.19;5073326;28;20196;-75
2020/12/15 10:40:35;;;;;;;11.40;9.57;;;;;;;7.66;71.54;95338.00;5072808;28;20651;-75
2020/12/15 10:43:02;;;;;;;10.23;9.13;;;;;;;7.52;71.84;95359.16;5073553;28;20193;-76
2020/12/15 10:45:28;;;;;;;10.37;9.03;;;;;;;7.52;71.55;95354.84;5073154;28;20200;-75
2020/12/15 10:47:55;;;;;;;11.27;8.30;;;;;;;7.55;71.55;95346.84;5072412;28;20247;-75
2020/12/15 10:50:21;;;;;;;10.00;8.90;;;;;;;7.57;71.87;95342.34;5073256;28;20197;-75
2020/12/15 10:52:46;;;;;;;10.47;8.60;;;;;;;7.63;71.36;95341.69;5073670;28;20686;-76
2020/12/15 10:55:13;;;;;;;10.27;8.40;;;;;;;7.66;71.89;95340.56;5073319;28;20250;-76
2020/12/15 10:57:39;;;;;;;10.67;9.57;;;;;;;7.65;71.55;95351.78;5071371;28;20291;-76
2020/12/15 11:00:06;;;;;;;10.03;9.03;;;;;;;7.75;71.41;95343.91;5071094;28;20200;-76
2020/12/15 11:02:32;;;;;;;10.67;9.20;;;;;;;7.78;71.27;95339.25;5072321;28;20212;-77
2020/12/15 11:04:59;;;;;;;9.77;8.77;;;;;;;7.84;71.92;95345.50;5072649;28;20220;-76
2020/12/15 11:07:25;;;;;;;40.80;30.07;;;;;;;7.88;71.81;95337.31;5072556;28;20192;-75
2020/12/15 11:09:51;;;;;;;27.33;20.63;;;;;;;7.93;71.62;95332.47;5072887;28;20201;-74
2020/12/15 11:12:17;;;;;;;14.37;12.73;;;;;;;8.02;71.91;95345.25;5072626;28;20193;-75
2020/12/15 11:14:43;;;;;;;13.87;10.63;;;;;;;8.09;71.98;95343.59;5072258;28;20216;-75
2020/12/15 11:17:09;;;;;;;10.43;9.43;;;;;;;8.08;70.73;95345.38;5072371;28;20197;-75
2020/12/15 11:19:35;;;;;;;11.03;9.53;;;;;;;8.12;71.36;95338.16;5072516;28;20201;-77
2020/12/15 11:22:02;;;;;;;15.40;9.17;;;;;;;8.15;70.98;95343.75;5072411;28;20220;-75
2020/12/15 11:24:28;;;;;;;10.53;9.53;;;;;;;8.17;71.24;95336.69;5072732;28;20216;-75
2020/12/15 11:26:54;;;;;;;12.20;10.10;;;;;;;8.15;71.96;95348.88;5071876;28;20216;-79
2020/12/15 11:29:20;;;;;;;11.37;9.67;;;;;;;8.18;71.36;95340.84;5073185;28;20258;-75
2020/12/15 11:31:49;;;;;;;13.30;9.47;;;;;;;8.24;71.03;95347.88;5072104;28;20208;-75
2020/12/15 11:34:14;;;;;;;13.27;10.10;;;;;;;8.17;71.22;95348.72;5072336;28;20212;-76